Gea — 9HAF8 — position and weather

sailwx.info

Track history (hours):
 
Tides and Currents Weather Stations Pressure Air Temp Water Temp Dewpoint Dewpoint Depression Visibility Wind Speed Wind Dir Waves Ship Positions

Gea

Last reported at 2018-Jul-18 08:32 UTC. Time now 2018-Jul-18 10:03 UTC.
Position N 52°08' E 003°41'.

Length 176 m; draft 7.8 m.

Type: Ship (hazmat cat A). MMSI: 215924000.

Date/timePositionNaut miles runAvg speedWind from/ knotsBaromVisibWave heightAir tempDewpointWater temp
2018-Jul-18 08:32N 52°08' E 003°41'0 0.0
2018-Jul-18 08:26N 52°08' E 003°41'0 0.0
2018-Jul-18 06:32N 52°08' E 003°41'0 0.0
2018-Jul-18 05:23N 52°08' E 003°41'0 0.0
2018-Jul-18 04:59N 52°08' E 003°41'0 0.0
2018-Jul-18 04:26N 52°08' E 003°41'0 0.0
2018-Jul-18 03:50N 52°08' E 003°41'0 0.2
2018-Jul-18 03:29N 52°08' E 003°41'0 0.1
2018-Jul-18 01:53N 52°08' E 003°41'0 0.0
2018-Jul-18 01:29N 52°08' E 003°41'0 0.0
2018-Jul-18 00:56N 52°08' E 003°41'0 0.0
2018-Jul-18 00:29N 52°08' E 003°41'0 0.0
2018-Jul-17 23:59N 52°08' E 003°41'0 0.0
2018-Jul-17 23:23N 52°08' E 003°41'0 0.2
2018-Jul-17 22:14N 52°08' E 003°41'0 0.2
2018-Jul-17 21:59N 52°08' E 003°42'0 0.1
2018-Jul-17 21:26N 52°08' E 003°41'0 0.0
2018-Jul-17 20:47N 52°08' E 003°41'0 0.0
2018-Jul-17 20:16N 52°08' E 003°41'0 0.0
2018-Jul-17 19:53N 52°08' E 003°41'0 0.0
2018-Jul-17 19:25N 52°08' E 003°41'0 0.0
2018-Jul-17 18:46N 52°08' E 003°41'0 0.0
2018-Jul-17 18:16N 52°08' E 003°41'0 0.0
2018-Jul-17 17:58N 52°08' E 003°41'0 0.0
2018-Jul-17 17:28N 52°08' E 003°41'0 0.0
2018-Jul-17 16:43N 52°08' E 003°41'0 0.0
2018-Jul-17 16:25N 52°08' E 003°41'0 0.0
2018-Jul-17 15:55N 52°08' E 003°41'0 0.0
2018-Jul-17 15:28N 52°08' E 003°41'0 0.1
2018-Jul-17 14:28N 52°08' E 003°41'0 0.0
2018-Jul-17 10:28N 52°08' E 003°41'0 0.1
2018-Jul-17 09:49N 52°08' E 003°42'0 0.1
2018-Jul-17 09:19N 52°08' E 003°42'0 0.0
2018-Jul-17 08:43N 52°08' E 003°42'0 0.0
2018-Jul-17 06:22N 52°08' E 003°41'0 0.3
2018-Jul-17 06:00N 52°08' E 003°42'4 8.2
2018-Jul-17 05:30N 52°07' E 003°48'611.8
2018-Jul-17 05:00N 52°04' E 003°56'510.3
2018-Jul-17 04:30N 52°00' E 004°02'5 9.9
2018-Jul-17 04:00N 51°58' E 004°09'5 9.4
2018-Jul-17 03:31N 51°55' E 004°15'4 8.3
2018-Jul-17 03:00N 51°54' E 004°21'1 1.9
2018-Jul-17 02:31N 51°53' E 004°22'0 0.0
2018-Jul-17 01:58N 51°53' E 004°22'0 0.0
2018-Jul-17 01:25N 51°53' E 004°22'0 0.0
2018-Jul-17 00:58N 51°53' E 004°22'0 0.0
2018-Jul-17 00:23N 51°53' E 004°22'0 0.0
2018-Jul-16 23:19N 51°53' E 004°22'0 0.0
2018-Jul-16 22:55N 51°53' E 004°22'0 0.0
2018-Jul-16 22:20N 51°53' E 004°22'0 0.0
2018-Jul-16 21:59N 51°53' E 004°22'0 0.0
2018-Jul-16 21:19N 51°53' E 004°22'0 0.0
2018-Jul-16 20:55N 51°53' E 004°22'0 0.0
2018-Jul-16 20:28N 51°53' E 004°22'0 0.0
2018-Jul-16 19:58N 51°53' E 004°22'0 0.0
2018-Jul-16 19:23N 51°53' E 004°22'0 0.0
2018-Jul-16 18:59N 51°53' E 004°22'0 0.0
2018-Jul-16 18:29N 51°53' E 004°22'0 0.0
2018-Jul-16 17:55N 51°53' E 004°22'0 0.0
2018-Jul-16 17:28N 51°53' E 004°22'0 0.0
2018-Jul-16 16:55N 51°53' E 004°22'0 0.0
2018-Jul-16 15:49N 51°53' E 004°22'0 0.0
2018-Jul-16 13:31N 51°53' E 004°22'0 0.0
2018-Jul-16 10:30N 51°53' E 004°22'0 0.0
2018-Jul-16 09:45N 51°53' E 004°22'0 0.0
2018-Jul-16 09:30N 51°53' E 004°22'0 0.0
2018-Jul-16 08:55N 51°53' E 004°22'0 0.0
2018-Jul-16 08:10N 51°53' E 004°22'0 0.0
2018-Jul-16 08:00N 51°53' E 004°22'0 0.0
2018-Jul-16 07:28N 51°53' E 004°22'0 0.0
2018-Jul-16 07:00N 51°53' E 004°22'0 0.0
2018-Jul-16 06:25N 51°53' E 004°22'0 0.0
2018-Jul-16 06:00N 51°53' E 004°22'0 0.0
2018-Jul-16 05:21N 51°53' E 004°22'0 0.0
2018-Jul-16 05:00N 51°53' E 004°22'0 0.0
2018-Jul-16 04:30N 51°53' E 004°22'0 0.0
2018-Jul-16 04:00N 51°53' E 004°22'0 0.0
2018-Jul-16 03:21N 51°53' E 004°22'0 0.0
2018-Jul-16 03:00N 51°53' E 004°22'0 0.0
2018-Jul-16 02:27N 51°53' E 004°22'0 0.0
2018-Jul-16 01:54N 51°53' E 004°22'0 0.0
2018-Jul-16 01:30N 51°53' E 004°22'0 0.0
2018-Jul-16 00:57N 51°53' E 004°22'0 0.0
2018-Jul-16 00:18N 51°53' E 004°22'0 0.0
2018-Jul-15 23:54N 51°53' E 004°22'0 0.0
2018-Jul-15 23:30N 51°53' E 004°22'0 0.0
2018-Jul-15 22:57N 51°53' E 004°22'0 0.0
2018-Jul-15 22:30N 51°53' E 004°22'0 0.0
2018-Jul-15 22:00N 51°53' E 004°22'0 0.0
2018-Jul-15 21:30N 51°53' E 004°22'0 0.0
2018-Jul-15 21:00N 51°53' E 004°22'0 0.0
2018-Jul-15 20:30N 51°53' E 004°22'0 0.0
2018-Jul-15 20:00N 51°53' E 004°22'0 0.0
2018-Jul-15 19:30N 51°53' E 004°22'0 0.0
2018-Jul-15 19:00N 51°53' E 004°22'0 0.0
2018-Jul-15 18:30N 51°53' E 004°22'0 0.0
2018-Jul-15 18:00N 51°53' E 004°22'0 0.0
2018-Jul-15 17:30N 51°53' E 004°22'0 0.0
2018-Jul-15 17:00N 51°53' E 004°22'0 0.0
2018-Jul-15 16:09N 51°53' E 004°22'0 0.0
2018-Jul-15 16:00N 51°53' E 004°22'0 0.0
2018-Jul-15 15:30N 51°53' E 004°22'0 0.0
2018-Jul-15 15:00N 51°53' E 004°22'0 0.0
2018-Jul-15 14:24N 51°53' E 004°22'0 0.0
2018-Jul-15 14:00N 51°53' E 004°22'0 0.0
2018-Jul-15 13:30N 51°53' E 004°22'0 0.0
2018-Jul-15 13:00N 51°53' E 004°22'0 0.0
2018-Jul-15 12:30N 51°53' E 004°22'0 0.0
2018-Jul-15 11:48N 51°53' E 004°22'0 0.0
2018-Jul-15 11:30N 51°53' E 004°22'0 0.0
2018-Jul-15 11:00N 51°53' E 004°22'0 0.0
2018-Jul-15 10:30N 51°53' E 004°22'0 0.4
2018-Jul-15 10:00N 51°53' E 004°22'1 1.2
2018-Jul-15 09:30N 51°54' E 004°22'2 4.7
2018-Jul-15 09:00N 51°54' E 004°18'3 6.3
2018-Jul-15 08:30N 51°55' E 004°14'5 9.4
2018-Jul-15 08:00N 51°58' E 004°08'510.9
2018-Jul-15 07:30N 51°60' E 003°59'612.4
2018-Jul-15 07:00N 52°00' E 003°49'510.3
2018-Jul-15 06:30N 51°58' E 003°41'510.6
2018-Jul-15 06:00N 51°57' E 003°33'611.9
2018-Jul-15 05:30N 51°56' E 003°24'612.1
2018-Jul-15 05:00N 51°55' E 003°14'612.4
2018-Jul-15 04:30N 51°53' E 003°04'612.9
2018-Jul-15 04:00N 51°51' E 002°55'713.1
2018-Jul-15 03:30N 51°48' E 002°45'713.9
2018-Jul-15 03:00N 51°45' E 002°36'714.6
2018-Jul-15 02:31N 51°39' E 002°28'714.6
2018-Jul-15 02:00N 51°34' E 002°20'714.4
2018-Jul-15 01:30N 51°28' E 002°13'713.8
2018-Jul-15 01:00N 51°22' E 002°07'713.9
2018-Jul-15 00:30N 51°15' E 002°05'714.0
2018-Jul-15 00:00N 51°11' E 001°56'714.1
2018-Jul-14 23:30N 51°08' E 001°46'713.8
2018-Jul-14 23:00N 51°03' E 001°38'713.2
2018-Jul-14 22:30N 50°58' E 001°31'612.4
2018-Jul-14 22:00N 50°53' E 001°26'611.9
2018-Jul-14 21:30N 50°47' E 001°24'611.6
2018-Jul-14 21:00N 50°42' E 001°22'611.4
2018-Jul-14 20:30N 50°38' E 001°14'611.7
2018-Jul-14 20:00N 50°35' E 001°07'611.7
2018-Jul-14 19:30N 50°31' E 000°60'611.5
2018-Jul-14 19:00N 50°29' E 000°52'611.7
2018-Jul-14 18:30N 50°27' E 000°43'611.7
2018-Jul-14 18:00N 50°26' E 000°34'611.4
2018-Jul-14 17:30N 50°24' E 000°25'611.2
2018-Jul-14 17:00N 50°23' E 000°17'510.3
2018-Jul-14 16:30N 50°21' E 000°09'510.0
2018-Jul-14 16:00N 50°20' E 000°01'5 9.9
2018-Jul-14 15:30N 50°19' W 000°06'5 9.8
2018-Jul-14 15:00N 50°17' W 000°13'5 9.6
2018-Jul-14 14:30N 50°16' W 000°21'9 9.5
2018-Jul-14 13:31N 50°14' W 000°35'510.1
2018-Jul-14 13:00N 50°12' W 000°43'510.7
2018-Jul-14 12:30N 50°11' W 000°51'611.6
2018-Jul-14 12:00N 50°10' W 000°60'612.3
2018-Jul-14 11:30N 50°08' W 001°09'612.2
2018-Jul-14 11:00N 50°06' W 001°18'612.8
2018-Jul-14 10:30N 50°04' W 001°27'713.5
2018-Jul-14 10:00N 50°03' W 001°38'714.1
2018-Jul-14 09:30N 50°00' W 001°48'815.4
2018-Jul-14 09:00N 49°59' W 001°60'816.7
2018-Jul-14 08:30N 49°57' W 002°12'816.4
2018-Jul-14 08:00N 49°55' W 002°24'915.8
2018-Jul-14 07:28N 49°52' W 002°37'715.3
2018-Jul-14 07:00N 49°50' W 002°48'714.7
2018-Jul-14 06:30N 49°48' W 002°59'814.2
2018-Jul-14 05:59N 49°46' W 003°10'713.9
2018-Jul-14 05:30N 49°44' W 003°19'813.6
2018-Jul-14 04:57N 49°42' W 003°31'613.4
2018-Jul-14 04:30N 49°40' W 003°39'713.4
2018-Jul-14 03:57N 49°39' W 003°51'613.1
2018-Jul-14 03:29N 49°39' W 004°00'812.8
2018-Jul-14 02:54N 49°39' W 004°12'512.3
2018-Jul-14 02:30N 49°39' W 004°19'612.1
2018-Jul-14 02:00N 49°39' W 004°29'911.8
2018-Jul-14 01:15N 49°39' W 004°42'311.4
2018-Jul-14 01:00N 49°39' W 004°47'611.2
2018-Jul-14 00:30N 49°39' W 004°55'1010.9
2018-Jul-13 23:38N 49°41' W 005°10'311.0
2018-Jul-13 23:24N 49°42' W 005°13'1011.3
2018-Jul-13 22:33N 49°46' W 005°27'2611.7
2018-Jul-13 20:22N 49°59' W 006°01'514.6
2018-Jul-13 20:00N 50°04' W 006°01'713.9
2018-Jul-13 19:30N 50°11' W 006°01'713.4
2018-Jul-13 19:00N 50°18' W 006°01'712.3
2018-Jul-13 18:25N 50°25' W 005°59'711.7
2018-Jul-13 17:50N 50°31' W 005°55'411.7
2018-Jul-13 17:30N 50°35' W 005°52'611.6
2018-Jul-13 17:00N 50°40' W 005°49'611.5
2018-Jul-13 16:27N 50°46' W 005°45'2611.8
2018-Jul-13 14:14N 51°10' W 005°30'912.7
2018-Jul-13 13:30N 51°19' W 005°24'613.0
2018-Jul-13 13:00N 51°25' W 005°21'713.2
2018-Jul-13 12:30N 51°31' W 005°17'713.0
2018-Jul-13 12:00N 51°37' W 005°13'510.6
2018-Jul-13 11:31N 51°42' W 005°08'4 5.8
2018-Jul-13 10:49N 51°42' W 005°02'0 0.0
2018-Jul-13 10:28N 51°42' W 005°02'0 0.0
2018-Jul-13 09:58N 51°42' W 005°02'0 0.0
2018-Jul-13 09:28N 51°42' W 005°02'0 0.0
2018-Jul-13 08:55N 51°42' W 005°02'0 0.0
2018-Jul-13 08:25N 51°42' W 005°02'0 0.0
2018-Jul-13 07:58N 51°42' W 005°02'0 0.0
2018-Jul-13 07:28N 51°42' W 005°02'0 0.0
2018-Jul-13 06:58N 51°42' W 005°02'0 0.0
2018-Jul-13 06:25N 51°42' W 005°02'0 0.0
2018-Jul-13 05:58N 51°42' W 005°02'0 0.0
2018-Jul-13 05:28N 51°42' W 005°02'0 0.0
2018-Jul-13 04:55N 51°42' W 005°02'0 0.0
2018-Jul-13 04:28N 51°42' W 005°02'0 0.0
2018-Jul-13 03:55N 51°42' W 005°02'0 0.0
2018-Jul-13 03:28N 51°42' W 005°02'0 0.0
2018-Jul-13 02:55N 51°42' W 005°02'0 0.0
2018-Jul-13 02:28N 51°42' W 005°02'0 0.0
2018-Jul-13 01:58N 51°42' W 005°02'0 0.0
2018-Jul-13 01:28N 51°42' W 005°02'0 0.0
2018-Jul-13 00:58N 51°42' W 005°02'0 0.0
2018-Jul-13 00:28N 51°42' W 005°02'0 0.0
2018-Jul-12 23:58N 51°42' W 005°02'0 0.0
2018-Jul-12 23:28N 51°42' W 005°02'0 0.0
2018-Jul-12 22:58N 51°42' W 005°02'0 0.0
2018-Jul-12 22:28N 51°42' W 005°02'0 0.0
2018-Jul-12 21:58N 51°42' W 005°02'0 0.0
2018-Jul-12 21:28N 51°42' W 005°02'0 0.0
2018-Jul-12 20:58N 51°42' W 005°02'0 0.0
2018-Jul-12 20:28N 51°42' W 005°02'0 0.0
2018-Jul-12 19:58N 51°42' W 005°02'0 0.0
2018-Jul-12 19:28N 51°42' W 005°02'0 0.0
2018-Jul-12 18:58N 51°42' W 005°02'0 0.0
2018-Jul-12 18:28N 51°42' W 005°02'0 0.0
2018-Jul-12 17:49N 51°42' W 005°02'0 0.0
2018-Jul-12 17:25N 51°42' W 005°02'0 0.0
2018-Jul-12 16:58N 51°42' W 005°02'0 0.0
2018-Jul-12 16:28N 51°42' W 005°02'0 0.0
2018-Jul-12 15:58N 51°42' W 005°02'0 0.0
2018-Jul-12 15:25N 51°42' W 005°02'0 0.0
2018-Jul-12 14:58N 51°42' W 005°02'0 0.0
2018-Jul-12 14:28N 51°42' W 005°02'0 0.0
2018-Jul-12 13:55N 51°42' W 005°02'0 0.0
2018-Jul-12 13:28N 51°42' W 005°02'0 0.0
2018-Jul-12 12:58N 51°42' W 005°02'0 0.0
2018-Jul-12 12:28N 51°42' W 005°02'0 0.0
2018-Jul-12 11:58N 51°42' W 005°02'0 0.0
2018-Jul-12 11:28N 51°42' W 005°02'0 0.0
2018-Jul-12 10:58N 51°42' W 005°02'0 0.0
2018-Jul-12 10:28N 51°42' W 005°02'0 0.0
2018-Jul-12 09:58N 51°42' W 005°02'0 0.0
2018-Jul-12 09:28N 51°42' W 005°02'0 0.0
2018-Jul-12 08:58N 51°42' W 005°02'0 0.0
2018-Jul-12 08:28N 51°42' W 005°02'0 0.0
2018-Jul-12 07:58N 51°42' W 005°02'0 0.0
2018-Jul-12 07:28N 51°42' W 005°02'0 0.0
2018-Jul-12 06:58N 51°42' W 005°02'0 0.0
2018-Jul-12 06:28N 51°42' W 005°02'0 0.0
2018-Jul-12 05:58N 51°42' W 005°02'0 0.0
2018-Jul-12 05:28N 51°42' W 005°02'0 0.0
2018-Jul-12 04:58N 51°42' W 005°02'0 0.0
2018-Jul-12 04:28N 51°42' W 005°02'0 0.0
2018-Jul-12 03:58N 51°42' W 005°02'0 0.0
2018-Jul-12 03:31N 51°42' W 005°02'0 0.0
2018-Jul-12 03:01N 51°42' W 005°02'0 0.0
2018-Jul-12 02:27N 51°42' W 005°02'0 0.0
2018-Jul-12 02:00N 51°42' W 005°02'0 0.0
2018-Jul-12 01:30N 51°42' W 005°02'0 0.0
2018-Jul-12 01:00N 51°42' W 005°02'0 0.0
2018-Jul-12 00:30N 51°42' W 005°02'0 0.0
2018-Jul-12 00:00N 51°42' W 005°02'0 0.0
2018-Jul-11 23:30N 51°42' W 005°02'0 0.0
2018-Jul-11 23:00N 51°42' W 005°02'0 0.0
2018-Jul-11 22:27N 51°42' W 005°02'0 0.0
2018-Jul-11 22:00N 51°42' W 005°02'0 0.0
2018-Jul-11 21:30N 51°42' W 005°02'0 0.0
2018-Jul-11 20:57N 51°42' W 005°02'0 0.0
2018-Jul-11 20:30N 51°42' W 005°02'0 0.0
2018-Jul-11 20:00N 51°42' W 005°02'0 0.2
2018-Jul-11 19:29N 51°42' W 005°02'2 3.4
2018-Jul-11 19:00N 51°42' W 005°05'3 6.0
2018-Jul-11 18:30N 51°41' W 005°09'5 9.3
2018-Jul-11 18:01N 51°37' W 005°14'3 5.5
2018-Jul-11 17:30N 51°35' W 005°16'3 5.5
2018-Jul-11 17:00N 51°32' W 005°15'2 4.8
2018-Jul-11 16:30N 51°31' W 005°12'0 0.5
2018-Jul-11 15:58N 51°31' W 005°12'0 0.1
2018-Jul-11 15:28N 51°31' W 005°12'0 0.1
2018-Jul-11 14:58N 51°31' W 005°12'0 0.1
2018-Jul-11 13:52N 51°31' W 005°12'0 0.1
2018-Jul-11 13:16N 51°31' W 005°12'0 0.1
2018-Jul-11 12:58N 51°31' W 005°12'0 0.1
2018-Jul-11 12:10N 51°31' W 005°12'0 0.0
2018-Jul-11 11:49N 51°31' W 005°12'0 0.1
2018-Jul-11 11:28N 51°31' W 005°12'0 0.1
2018-Jul-11 10:58N 51°31' W 005°12'0 0.1
2018-Jul-11 10:19N 51°31' W 005°12'0 0.1
2018-Jul-11 09:58N 51°31' W 005°12'0 0.0
2018-Jul-11 09:28N 51°31' W 005°12'0 0.0
2018-Jul-11 08:58N 51°31' W 005°12'0 0.1
2018-Jul-11 08:28N 51°31' W 005°12'0 0.0
2018-Jul-11 07:58N 51°31' W 005°12'0 0.1
2018-Jul-11 07:28N 51°31' W 005°12'0 0.0
2018-Jul-11 06:58N 51°31' W 005°12'0 0.0
2018-Jul-11 06:25N 51°31' W 005°12'0 0.0
2018-Jul-11 05:58N 51°31' W 005°12'0 0.0
2018-Jul-11 05:25N 51°31' W 005°12'0 0.1
2018-Jul-11 04:58N 51°31' W 005°12'0 0.1
2018-Jul-11 04:28N 51°31' W 005°12'0 0.1
2018-Jul-11 03:58N 51°31' W 005°12'0 0.1
2018-Jul-11 03:25N 51°31' W 005°12'0 0.1
2018-Jul-11 02:58N 51°31' W 005°12'0 0.1
2018-Jul-11 02:22N 51°31' W 005°12'0 0.1
2018-Jul-11 01:58N 51°31' W 005°12'0 0.1
2018-Jul-11 01:16N 51°31' W 005°12'0 0.0
2018-Jul-11 00:52N 51°31' W 005°12'0 0.0
2018-Jul-11 00:28N 51°31' W 005°12'0 0.0
2018-Jul-10 23:58N 51°31' W 005°12'0 0.0
2018-Jul-10 23:28N 51°31' W 005°12'0 0.2
2018-Jul-10 22:55N 51°31' W 005°12'0 0.2
2018-Jul-10 22:25N 51°31' W 005°12'0 0.1
2018-Jul-10 21:58N 51°31' W 005°12'0 0.0
2018-Jul-10 21:28N 51°31' W 005°12'0 0.0
2018-Jul-10 20:58N 51°31' W 005°12'0 0.1
2018-Jul-10 20:22N 51°31' W 005°12'0 0.0
2018-Jul-10 19:58N 51°31' W 005°12'0 0.0
2018-Jul-10 19:28N 51°31' W 005°12'0 0.0
2018-Jul-10 18:52N 51°31' W 005°12'0 0.0
2018-Jul-10 18:19N 51°31' W 005°12'0 0.0
2018-Jul-10 17:58N 51°31' W 005°12'0 0.0
2018-Jul-10 17:28N 51°31' W 005°12'0 0.0
2018-Jul-10 16:58N 51°31' W 005°12'0 0.0
2018-Jul-10 16:28N 51°31' W 005°12'0 0.0
2018-Jul-10 15:58N 51°31' W 005°12'0 0.1
2018-Jul-10 15:28N 51°31' W 005°12'0 0.1
2018-Jul-10 14:58N 51°31' W 005°12'0 0.1
2018-Jul-10 14:28N 51°31' W 005°12'0 0.0
2018-Jul-10 13:34N 51°31' W 005°12'0 0.0
2018-Jul-10 13:16N 51°31' W 005°12'0 0.1
2018-Jul-10 12:34N 51°31' W 005°12'0 0.0
2018-Jul-10 12:25N 51°31' W 005°12'0 0.0
2018-Jul-10 11:58N 51°31' W 005°12'0 0.0
2018-Jul-10 11:16N 51°31' W 005°12'0 0.3
2018-Jul-10 10:58N 51°31' W 005°12'0 0.3
2018-Jul-10 10:28N 51°31' W 005°12'0 0.0
2018-Jul-10 09:55N 51°31' W 005°12'0 0.1
2018-Jul-10 09:28N 51°31' W 005°12'0 0.0
2018-Jul-10 08:58N 51°31' W 005°12'0 0.0
2018-Jul-10 08:31N 51°31' W 005°12'0 0.0
2018-Jul-10 08:01N 51°31' W 005°12'0 0.0
2018-Jul-10 07:27N 51°31' W 005°12'0 0.0
2018-Jul-10 07:00N 51°31' W 005°12'0 0.0
2018-Jul-10 06:30N 51°31' W 005°12'0 0.1
2018-Jul-10 06:00N 51°31' W 005°12'0 0.0
2018-Jul-10 05:30N 51°31' W 005°12'0 0.0
2018-Jul-10 05:00N 51°31' W 005°12'0 0.2
2018-Jul-10 04:30N 51°31' W 005°12'0 0.1
2018-Jul-10 04:00N 51°31' W 005°12'0 0.1
2018-Jul-10 03:27N 51°31' W 005°12'0 0.0
2018-Jul-10 02:57N 51°31' W 005°12'0 0.2
2018-Jul-10 02:30N 51°30' W 005°12'0 0.2
2018-Jul-10 02:00N 51°30' W 005°12'0 0.1
2018-Jul-10 01:30N 51°31' W 005°12'0 0.1
2018-Jul-10 01:00N 51°31' W 005°12'0 0.0
2018-Jul-09 22:54N 51°31' W 005°12'0 0.1
2018-Jul-09 22:30N 51°31' W 005°12'0 0.1
2018-Jul-09 21:57N 51°31' W 005°12'0 0.2
2018-Jul-09 21:30N 51°31' W 005°12'0 0.2
2018-Jul-09 21:00N 51°31' W 005°12'0 0.1
2018-Jul-09 20:27N 51°31' W 005°12'0 0.0
2018-Jul-09 20:00N 51°31' W 005°12'0 0.0
2018-Jul-09 19:30N 51°31' W 005°12'0 0.0
2018-Jul-09 19:00N 51°31' W 005°12'0 0.1
2018-Jul-09 18:30N 51°31' W 005°12'0 0.0
2018-Jul-09 18:00N 51°31' W 005°12'0 0.0
2018-Jul-09 17:30N 51°31' W 005°12'0 0.0
2018-Jul-09 17:00N 51°31' W 005°12'0 0.0
2018-Jul-09 16:24N 51°31' W 005°12'0 0.0
2018-Jul-09 16:00N 51°31' W 005°12'0 0.1
2018-Jul-09 15:30N 51°31' W 005°12'0 0.2
2018-Jul-09 14:57N 51°31' W 005°12'0 0.0
2018-Jul-09 14:27N 51°31' W 005°12'0 0.3
2018-Jul-09 14:00N 51°30' W 005°12'0 0.1
2018-Jul-09 13:12N 51°31' W 005°12'0 0.1
2018-Jul-09 12:39N 51°31' W 005°12'0 0.2
2018-Jul-09 12:27N 51°31' W 005°12'0 0.0
2018-Jul-09 11:45N 51°31' W 005°12'0 0.0
2018-Jul-09 11:24N 51°31' W 005°12'0 0.0
2018-Jul-09 09:09N 51°30' W 005°12'0 0.5
2018-Jul-09 08:57N 51°31' W 005°12'0 0.3
2018-Jul-09 08:30N 51°31' W 005°12'0 0.1
2018-Jul-09 07:57N 51°31' W 005°12'0 0.0
2018-Jul-09 07:30N 51°31' W 005°12'0 0.0
2018-Jul-09 07:00N 51°31' W 005°12'0 0.0
2018-Jul-09 06:30N 51°31' W 005°12'0 0.2
2018-Jul-09 06:00N 51°31' W 005°12'0 0.0
2018-Jul-09 05:30N 51°31' W 005°12'2 3.5
2018-Jul-09 05:00N 51°30' W 005°15'3 6.4
2018-Jul-09 04:30N 51°29' W 005°20'610.6
2018-Jul-09 03:59N 51°25' W 005°25'611.6
2018-Jul-09 03:29N 51°20' W 005°29'712.5
2018-Jul-09 02:57N 51°14' W 005°34'612.7
2018-Jul-09 02:29N 51°09' W 005°39'612.6
2018-Jul-09 02:00N 51°03' W 005°44'612.7
2018-Jul-09 01:30N 50°58' W 005°48'613.0
2018-Jul-09 01:00N 50°52' W 005°53'1412.9
2018-Jul-08 23:56N 50°40' W 006°04'612.7
2018-Jul-08 23:28N 50°35' W 006°08'612.9
2018-Jul-08 23:00N 50°29' W 006°13'612.8
2018-Jul-08 22:30N 50°24' W 006°18'612.7
2018-Jul-08 22:00N 50°18' W 006°23'1212.7
2018-Jul-08 21:03N 50°08' W 006°32'113.4
2018-Jul-08 21:00N 50°07' W 006°32'612.5
2018-Jul-08 20:30N 50°01' W 006°36'612.0
2018-Jul-08 19:59N 49°56' W 006°40'611.8
2018-Jul-08 19:29N 49°50' W 006°43'612.1
2018-Jul-08 19:00N 49°45' W 006°46'612.2
2018-Jul-08 18:30N 49°39' W 006°49'  
Track history (hours):
 
Tides and Currents Weather Stations Pressure Air Temp Water Temp Dewpoint Dewpoint Depression Visibility Wind Speed Wind Dir Waves Ship Positions

Gea

Last reported at 2018-Jul-18 08:32 UTC. Time now 2018-Jul-18 10:03 UTC.
Position N 52°08' E 003°41'.

Length 176 m; draft 7.8 m.

Type: Ship (hazmat cat A). MMSI: 215924000.

Date/timePositionNaut miles runAvg speedWind from/ knotsBaromVisibWave heightAir tempDewpointWater temp
2018-Jul-18 08:32N 52°08' E 003°41'0 0.0
2018-Jul-18 08:26N 52°08' E 003°41'0 0.0
2018-Jul-18 06:32N 52°08' E 003°41'0 0.0
2018-Jul-18 05:23N 52°08' E 003°41'0 0.0
2018-Jul-18 04:59N 52°08' E 003°41'0 0.0
2018-Jul-18 04:26N 52°08' E 003°41'0 0.0
2018-Jul-18 03:50N 52°08' E 003°41'0 0.2
2018-Jul-18 03:29N 52°08' E 003°41'0 0.1
2018-Jul-18 01:53N 52°08' E 003°41'0 0.0
2018-Jul-18 01:29N 52°08' E 003°41'0 0.0
2018-Jul-18 00:56N 52°08' E 003°41'0 0.0
2018-Jul-18 00:29N 52°08' E 003°41'0 0.0
2018-Jul-17 23:59N 52°08' E 003°41'0 0.0
2018-Jul-17 23:23N 52°08' E 003°41'0 0.2
2018-Jul-17 22:14N 52°08' E 003°41'0 0.2
2018-Jul-17 21:59N 52°08' E 003°42'0 0.1
2018-Jul-17 21:26N 52°08' E 003°41'0 0.0
2018-Jul-17 20:47N 52°08' E 003°41'0 0.0
2018-Jul-17 20:16N 52°08' E 003°41'0 0.0
2018-Jul-17 19:53N 52°08' E 003°41'0 0.0
2018-Jul-17 19:25N 52°08' E 003°41'0 0.0
2018-Jul-17 18:46N 52°08' E 003°41'0 0.0
2018-Jul-17 18:16N 52°08' E 003°41'0 0.0
2018-Jul-17 17:58N 52°08' E 003°41'0 0.0
2018-Jul-17 17:28N 52°08' E 003°41'0 0.0
2018-Jul-17 16:43N 52°08' E 003°41'0 0.0
2018-Jul-17 16:25N 52°08' E 003°41'0 0.0
2018-Jul-17 15:55N 52°08' E 003°41'0 0.0
2018-Jul-17 15:28N 52°08' E 003°41'0 0.1
2018-Jul-17 14:28N 52°08' E 003°41'0 0.0
2018-Jul-17 10:28N 52°08' E 003°41'0 0.1
2018-Jul-17 09:49N 52°08' E 003°42'0 0.1
2018-Jul-17 09:19N 52°08' E 003°42'0 0.0
2018-Jul-17 08:43N 52°08' E 003°42'0 0.0
2018-Jul-17 06:22N 52°08' E 003°41'0 0.3
2018-Jul-17 06:00N 52°08' E 003°42'4 8.2
2018-Jul-17 05:30N 52°07' E 003°48'611.8
2018-Jul-17 05:00N 52°04' E 003°56'510.3
2018-Jul-17 04:30N 52°00' E 004°02'5 9.9
2018-Jul-17 04:00N 51°58' E 004°09'5 9.4
2018-Jul-17 03:31N 51°55' E 004°15'4 8.3
2018-Jul-17 03:00N 51°54' E 004°21'1 1.9
2018-Jul-17 02:31N 51°53' E 004°22'0 0.0
2018-Jul-17 01:58N 51°53' E 004°22'0 0.0
2018-Jul-17 01:25N 51°53' E 004°22'0 0.0
2018-Jul-17 00:58N 51°53' E 004°22'0 0.0
2018-Jul-17 00:23N 51°53' E 004°22'0 0.0
2018-Jul-16 23:19N 51°53' E 004°22'0 0.0
2018-Jul-16 22:55N 51°53' E 004°22'0 0.0
2018-Jul-16 22:20N 51°53' E 004°22'0 0.0
2018-Jul-16 21:59N 51°53' E 004°22'0 0.0
2018-Jul-16 21:19N 51°53' E 004°22'0 0.0
2018-Jul-16 20:55N 51°53' E 004°22'0 0.0
2018-Jul-16 20:28N 51°53' E 004°22'0 0.0
2018-Jul-16 19:58N 51°53' E 004°22'0 0.0
2018-Jul-16 19:23N 51°53' E 004°22'0 0.0
2018-Jul-16 18:59N 51°53' E 004°22'0 0.0
2018-Jul-16 18:29N 51°53' E 004°22'0 0.0
2018-Jul-16 17:55N 51°53' E 004°22'0 0.0
2018-Jul-16 17:28N 51°53' E 004°22'0 0.0
2018-Jul-16 16:55N 51°53' E 004°22'0 0.0
2018-Jul-16 15:49N 51°53' E 004°22'0 0.0
2018-Jul-16 13:31N 51°53' E 004°22'0 0.0
2018-Jul-16 10:30N 51°53' E 004°22'0 0.0
2018-Jul-16 09:45N 51°53' E 004°22'0 0.0
2018-Jul-16 09:30N 51°53' E 004°22'0 0.0
2018-Jul-16 08:55N 51°53' E 004°22'0 0.0
2018-Jul-16 08:10N 51°53' E 004°22'0 0.0
2018-Jul-16 08:00N 51°53' E 004°22'0 0.0
2018-Jul-16 07:28N 51°53' E 004°22'0 0.0
2018-Jul-16 07:00N 51°53' E 004°22'0 0.0
2018-Jul-16 06:25N 51°53' E 004°22'0 0.0
2018-Jul-16 06:00N 51°53' E 004°22'0 0.0
2018-Jul-16 05:21N 51°53' E 004°22'0 0.0
2018-Jul-16 05:00N 51°53' E 004°22'0 0.0
2018-Jul-16 04:30N 51°53' E 004°22'0 0.0
2018-Jul-16 04:00N 51°53' E 004°22'0 0.0
2018-Jul-16 03:21N 51°53' E 004°22'0 0.0
2018-Jul-16 03:00N 51°53' E 004°22'0 0.0
2018-Jul-16 02:27N 51°53' E 004°22'0 0.0
2018-Jul-16 01:54N 51°53' E 004°22'0 0.0
2018-Jul-16 01:30N 51°53' E 004°22'0 0.0
2018-Jul-16 00:57N 51°53' E 004°22'0 0.0
2018-Jul-16 00:18N 51°53' E 004°22'0 0.0
2018-Jul-15 23:54N 51°53' E 004°22'0 0.0
2018-Jul-15 23:30N 51°53' E 004°22'0 0.0
2018-Jul-15 22:57N 51°53' E 004°22'0 0.0
2018-Jul-15 22:30N 51°53' E 004°22'0 0.0
2018-Jul-15 22:00N 51°53' E 004°22'0 0.0
2018-Jul-15 21:30N 51°53' E 004°22'0 0.0
2018-Jul-15 21:00N 51°53' E 004°22'0 0.0
2018-Jul-15 20:30N 51°53' E 004°22'0 0.0
2018-Jul-15 20:00N 51°53' E 004°22'0 0.0
2018-Jul-15 19:30N 51°53' E 004°22'0 0.0
2018-Jul-15 19:00N 51°53' E 004°22'0 0.0
2018-Jul-15 18:30N 51°53' E 004°22'0 0.0
2018-Jul-15 18:00N 51°53' E 004°22'0 0.0
2018-Jul-15 17:30N 51°53' E 004°22'0 0.0
2018-Jul-15 17:00N 51°53' E 004°22'0 0.0
2018-Jul-15 16:09N 51°53' E 004°22'0 0.0
2018-Jul-15 16:00N 51°53' E 004°22'0 0.0
2018-Jul-15 15:30N 51°53' E 004°22'0 0.0
2018-Jul-15 15:00N 51°53' E 004°22'0 0.0
2018-Jul-15 14:24N 51°53' E 004°22'0 0.0
2018-Jul-15 14:00N 51°53' E 004°22'0 0.0
2018-Jul-15 13:30N 51°53' E 004°22'0 0.0
2018-Jul-15 13:00N 51°53' E 004°22'0 0.0
2018-Jul-15 12:30N 51°53' E 004°22'0 0.0
2018-Jul-15 11:48N 51°53' E 004°22'0 0.0
2018-Jul-15 11:30N 51°53' E 004°22'0 0.0
2018-Jul-15 11:00N 51°53' E 004°22'0 0.0
2018-Jul-15 10:30N 51°53' E 004°22'0 0.4
2018-Jul-15 10:00N 51°53' E 004°22'1 1.2
2018-Jul-15 09:30N 51°54' E 004°22'2 4.7
2018-Jul-15 09:00N 51°54' E 004°18'3 6.3
2018-Jul-15 08:30N 51°55' E 004°14'5 9.4
2018-Jul-15 08:00N 51°58' E 004°08'510.9
2018-Jul-15 07:30N 51°60' E 003°59'612.4
2018-Jul-15 07:00N 52°00' E 003°49'510.3
2018-Jul-15 06:30N 51°58' E 003°41'510.6
2018-Jul-15 06:00N 51°57' E 003°33'611.9
2018-Jul-15 05:30N 51°56' E 003°24'612.1
2018-Jul-15 05:00N 51°55' E 003°14'612.4
2018-Jul-15 04:30N 51°53' E 003°04'612.9
2018-Jul-15 04:00N 51°51' E 002°55'713.1
2018-Jul-15 03:30N 51°48' E 002°45'713.9
2018-Jul-15 03:00N 51°45' E 002°36'714.6
2018-Jul-15 02:31N 51°39' E 002°28'714.6
2018-Jul-15 02:00N 51°34' E 002°20'714.4
2018-Jul-15 01:30N 51°28' E 002°13'713.8
2018-Jul-15 01:00N 51°22' E 002°07'713.9
2018-Jul-15 00:30N 51°15' E 002°05'714.0
2018-Jul-15 00:00N 51°11' E 001°56'714.1
2018-Jul-14 23:30N 51°08' E 001°46'713.8
2018-Jul-14 23:00N 51°03' E 001°38'713.2
2018-Jul-14 22:30N 50°58' E 001°31'612.4
2018-Jul-14 22:00N 50°53' E 001°26'611.9
2018-Jul-14 21:30N 50°47' E 001°24'611.6
2018-Jul-14 21:00N 50°42' E 001°22'611.4
2018-Jul-14 20:30N 50°38' E 001°14'611.7
2018-Jul-14 20:00N 50°35' E 001°07'611.7
2018-Jul-14 19:30N 50°31' E 000°60'611.5
2018-Jul-14 19:00N 50°29' E 000°52'611.7
2018-Jul-14 18:30N 50°27' E 000°43'611.7
2018-Jul-14 18:00N 50°26' E 000°34'611.4
2018-Jul-14 17:30N 50°24' E 000°25'611.2
2018-Jul-14 17:00N 50°23' E 000°17'510.3
2018-Jul-14 16:30N 50°21' E 000°09'510.0
2018-Jul-14 16:00N 50°20' E 000°01'5 9.9
2018-Jul-14 15:30N 50°19' W 000°06'5 9.8
2018-Jul-14 15:00N 50°17' W 000°13'5 9.6
2018-Jul-14 14:30N 50°16' W 000°21'9 9.5
2018-Jul-14 13:31N 50°14' W 000°35'510.1
2018-Jul-14 13:00N 50°12' W 000°43'510.7
2018-Jul-14 12:30N 50°11' W 000°51'611.6
2018-Jul-14 12:00N 50°10' W 000°60'612.3
2018-Jul-14 11:30N 50°08' W 001°09'612.2
2018-Jul-14 11:00N 50°06' W 001°18'612.8
2018-Jul-14 10:30N 50°04' W 001°27'713.5
2018-Jul-14 10:00N 50°03' W 001°38'714.1
2018-Jul-14 09:30N 50°00' W 001°48'815.4
2018-Jul-14 09:00N 49°59' W 001°60'816.7
2018-Jul-14 08:30N 49°57' W 002°12'816.4
2018-Jul-14 08:00N 49°55' W 002°24'915.8
2018-Jul-14 07:28N 49°52' W 002°37'715.3
2018-Jul-14 07:00N 49°50' W 002°48'714.7
2018-Jul-14 06:30N 49°48' W 002°59'814.2
2018-Jul-14 05:59N 49°46' W 003°10'713.9
2018-Jul-14 05:30N 49°44' W 003°19'813.6
2018-Jul-14 04:57N 49°42' W 003°31'613.4
2018-Jul-14 04:30N 49°40' W 003°39'713.4
2018-Jul-14 03:57N 49°39' W 003°51'613.1
2018-Jul-14 03:29N 49°39' W 004°00'812.8
2018-Jul-14 02:54N 49°39' W 004°12'512.3
2018-Jul-14 02:30N 49°39' W 004°19'612.1
2018-Jul-14 02:00N 49°39' W 004°29'911.8
2018-Jul-14 01:15N 49°39' W 004°42'311.4
2018-Jul-14 01:00N 49°39' W 004°47'611.2
2018-Jul-14 00:30N 49°39' W 004°55'1010.9
2018-Jul-13 23:38N 49°41' W 005°10'311.0
2018-Jul-13 23:24N 49°42' W 005°13'1011.3
2018-Jul-13 22:33N 49°46' W 005°27'2611.7
2018-Jul-13 20:22N 49°59' W 006°01'514.6
2018-Jul-13 20:00N 50°04' W 006°01'713.9
2018-Jul-13 19:30N 50°11' W 006°01'713.4
2018-Jul-13 19:00N 50°18' W 006°01'712.3
2018-Jul-13 18:25N 50°25' W 005°59'711.7
2018-Jul-13 17:50N 50°31' W 005°55'411.7
2018-Jul-13 17:30N 50°35' W 005°52'611.6
2018-Jul-13 17:00N 50°40' W 005°49'611.5
2018-Jul-13 16:27N 50°46' W 005°45'2611.8
2018-Jul-13 14:14N 51°10' W 005°30'912.7
2018-Jul-13 13:30N 51°19' W 005°24'613.0
2018-Jul-13 13:00N 51°25' W 005°21'713.2
2018-Jul-13 12:30N 51°31' W 005°17'713.0
2018-Jul-13 12:00N 51°37' W 005°13'510.6
2018-Jul-13 11:31N 51°42' W 005°08'4 5.8
2018-Jul-13 10:49N 51°42' W 005°02'0 0.0
2018-Jul-13 10:28N 51°42' W 005°02'0 0.0
2018-Jul-13 09:58N 51°42' W 005°02'0 0.0
2018-Jul-13 09:28N 51°42' W 005°02'0 0.0
2018-Jul-13 08:55N 51°42' W 005°02'0 0.0
2018-Jul-13 08:25N 51°42' W 005°02'0 0.0
2018-Jul-13 07:58N 51°42' W 005°02'0 0.0
2018-Jul-13 07:28N 51°42' W 005°02'0 0.0
2018-Jul-13 06:58N 51°42' W 005°02'0 0.0
2018-Jul-13 06:25N 51°42' W 005°02'0 0.0
2018-Jul-13 05:58N 51°42' W 005°02'0 0.0
2018-Jul-13 05:28N 51°42' W 005°02'0 0.0
2018-Jul-13 04:55N 51°42' W 005°02'0 0.0
2018-Jul-13 04:28N 51°42' W 005°02'0 0.0
2018-Jul-13 03:55N 51°42' W 005°02'0 0.0
2018-Jul-13 03:28N 51°42' W 005°02'0 0.0
2018-Jul-13 02:55N 51°42' W 005°02'0 0.0
2018-Jul-13 02:28N 51°42' W 005°02'0 0.0
2018-Jul-13 01:58N 51°42' W 005°02'0 0.0
2018-Jul-13 01:28N 51°42' W 005°02'0 0.0
2018-Jul-13 00:58N 51°42' W 005°02'0 0.0
2018-Jul-13 00:28N 51°42' W 005°02'0 0.0
2018-Jul-12 23:58N 51°42' W 005°02'0 0.0
2018-Jul-12 23:28N 51°42' W 005°02'0 0.0
2018-Jul-12 22:58N 51°42' W 005°02'0 0.0
2018-Jul-12 22:28N 51°42' W 005°02'0 0.0
2018-Jul-12 21:58N 51°42' W 005°02'0 0.0
2018-Jul-12 21:28N 51°42' W 005°02'0 0.0
2018-Jul-12 20:58N 51°42' W 005°02'0 0.0
2018-Jul-12 20:28N 51°42' W 005°02'0 0.0
2018-Jul-12 19:58N 51°42' W 005°02'0 0.0
2018-Jul-12 19:28N 51°42' W 005°02'0 0.0
2018-Jul-12 18:58N 51°42' W 005°02'0 0.0
2018-Jul-12 18:28N 51°42' W 005°02'0 0.0
2018-Jul-12 17:49N 51°42' W 005°02'0 0.0
2018-Jul-12 17:25N 51°42' W 005°02'0 0.0
2018-Jul-12 16:58N 51°42' W 005°02'0 0.0
2018-Jul-12 16:28N 51°42' W 005°02'0 0.0
2018-Jul-12 15:58N 51°42' W 005°02'0 0.0
2018-Jul-12 15:25N 51°42' W 005°02'0 0.0
2018-Jul-12 14:58N 51°42' W 005°02'0 0.0
2018-Jul-12 14:28N 51°42' W 005°02'0 0.0
2018-Jul-12 13:55N 51°42' W 005°02'0 0.0
2018-Jul-12 13:28N 51°42' W 005°02'0 0.0
2018-Jul-12 12:58N 51°42' W 005°02'0 0.0
2018-Jul-12 12:28N 51°42' W 005°02'0 0.0
2018-Jul-12 11:58N 51°42' W 005°02'0 0.0
2018-Jul-12 11:28N 51°42' W 005°02'0 0.0
2018-Jul-12 10:58N 51°42' W 005°02'0 0.0
2018-Jul-12 10:28N 51°42' W 005°02'0 0.0
2018-Jul-12 09:58N 51°42' W 005°02'0 0.0
2018-Jul-12 09:28N 51°42' W 005°02'0 0.0
2018-Jul-12 08:58N 51°42' W 005°02'0 0.0
2018-Jul-12 08:28N 51°42' W 005°02'0 0.0
2018-Jul-12 07:58N 51°42' W 005°02'0 0.0
2018-Jul-12 07:28N 51°42' W 005°02'0 0.0
2018-Jul-12 06:58N 51°42' W 005°02'0 0.0
2018-Jul-12 06:28N 51°42' W 005°02'0 0.0
2018-Jul-12 05:58N 51°42' W 005°02'0 0.0
2018-Jul-12 05:28N 51°42' W 005°02'0 0.0
2018-Jul-12 04:58N 51°42' W 005°02'0 0.0
2018-Jul-12 04:28N 51°42' W 005°02'0 0.0
2018-Jul-12 03:58N 51°42' W 005°02'0 0.0
2018-Jul-12 03:31N 51°42' W 005°02'0 0.0
2018-Jul-12 03:01N 51°42' W 005°02'0 0.0
2018-Jul-12 02:27N 51°42' W 005°02'0 0.0
2018-Jul-12 02:00N 51°42' W 005°02'0 0.0
2018-Jul-12 01:30N 51°42' W 005°02'0 0.0
2018-Jul-12 01:00N 51°42' W 005°02'0 0.0
2018-Jul-12 00:30N 51°42' W 005°02'0 0.0
2018-Jul-12 00:00N 51°42' W 005°02'0 0.0
2018-Jul-11 23:30N 51°42' W 005°02'0 0.0
2018-Jul-11 23:00N 51°42' W 005°02'0 0.0
2018-Jul-11 22:27N 51°42' W 005°02'0 0.0
2018-Jul-11 22:00N 51°42' W 005°02'0 0.0
2018-Jul-11 21:30N 51°42' W 005°02'0 0.0
2018-Jul-11 20:57N 51°42' W 005°02'0 0.0
2018-Jul-11 20:30N 51°42' W 005°02'0 0.0
2018-Jul-11 20:00N 51°42' W 005°02'0 0.2
2018-Jul-11 19:29N 51°42' W 005°02'2 3.4
2018-Jul-11 19:00N 51°42' W 005°05'3 6.0
2018-Jul-11 18:30N 51°41' W 005°09'5 9.3
2018-Jul-11 18:01N 51°37' W 005°14'3 5.5
2018-Jul-11 17:30N 51°35' W 005°16'3 5.5
2018-Jul-11 17:00N 51°32' W 005°15'2 4.8
2018-Jul-11 16:30N 51°31' W 005°12'0 0.5
2018-Jul-11 15:58N 51°31' W 005°12'0 0.1
2018-Jul-11 15:28N 51°31' W 005°12'0 0.1
2018-Jul-11 14:58N 51°31' W 005°12'0 0.1
2018-Jul-11 13:52N 51°31' W 005°12'0 0.1
2018-Jul-11 13:16N 51°31' W 005°12'0 0.1
2018-Jul-11 12:58N 51°31' W 005°12'0 0.1
2018-Jul-11 12:10N 51°31' W 005°12'0 0.0
2018-Jul-11 11:49N 51°31' W 005°12'0 0.1
2018-Jul-11 11:28N 51°31' W 005°12'0 0.1
2018-Jul-11 10:58N 51°31' W 005°12'0 0.1
2018-Jul-11 10:19N 51°31' W 005°12'0 0.1
2018-Jul-11 09:58N 51°31' W 005°12'0 0.0
2018-Jul-11 09:28N 51°31' W 005°12'0 0.0
2018-Jul-11 08:58N 51°31' W 005°12'0 0.1
2018-Jul-11 08:28N 51°31' W 005°12'0 0.0
2018-Jul-11 07:58N 51°31' W 005°12'0 0.1
2018-Jul-11 07:28N 51°31' W 005°12'0 0.0
2018-Jul-11 06:58N 51°31' W 005°12'0 0.0
2018-Jul-11 06:25N 51°31' W 005°12'0 0.0
2018-Jul-11 05:58N 51°31' W 005°12'0 0.0
2018-Jul-11 05:25N 51°31' W 005°12'0 0.1
2018-Jul-11 04:58N 51°31' W 005°12'0 0.1
2018-Jul-11 04:28N 51°31' W 005°12'0 0.1
2018-Jul-11 03:58N 51°31' W 005°12'0 0.1
2018-Jul-11 03:25N 51°31' W 005°12'0 0.1
2018-Jul-11 02:58N 51°31' W 005°12'0 0.1
2018-Jul-11 02:22N 51°31' W 005°12'0 0.1
2018-Jul-11 01:58N 51°31' W 005°12'0 0.1
2018-Jul-11 01:16N 51°31' W 005°12'0 0.0
2018-Jul-11 00:52N 51°31' W 005°12'0 0.0
2018-Jul-11 00:28N 51°31' W 005°12'0 0.0
2018-Jul-10 23:58N 51°31' W 005°12'0 0.0
2018-Jul-10 23:28N 51°31' W 005°12'0 0.2
2018-Jul-10 22:55N 51°31' W 005°12'0 0.2
2018-Jul-10 22:25N 51°31' W 005°12'0 0.1
2018-Jul-10 21:58N 51°31' W 005°12'0 0.0
2018-Jul-10 21:28N 51°31' W 005°12'0 0.0
2018-Jul-10 20:58N 51°31' W 005°12'0 0.1
2018-Jul-10 20:22N 51°31' W 005°12'0 0.0
2018-Jul-10 19:58N 51°31' W 005°12'0 0.0
2018-Jul-10 19:28N 51°31' W 005°12'0 0.0
2018-Jul-10 18:52N 51°31' W 005°12'0 0.0
2018-Jul-10 18:19N 51°31' W 005°12'0 0.0
2018-Jul-10 17:58N 51°31' W 005°12'0 0.0
2018-Jul-10 17:28N 51°31' W 005°12'0 0.0
2018-Jul-10 16:58N 51°31' W 005°12'0 0.0
2018-Jul-10 16:28N 51°31' W 005°12'0 0.0
2018-Jul-10 15:58N 51°31' W 005°12'0 0.1
2018-Jul-10 15:28N 51°31' W 005°12'0 0.1
2018-Jul-10 14:58N 51°31' W 005°12'0 0.1
2018-Jul-10 14:28N 51°31' W 005°12'0 0.0
2018-Jul-10 13:34N 51°31' W 005°12'0 0.0
2018-Jul-10 13:16N 51°31' W 005°12'0 0.1
2018-Jul-10 12:34N 51°31' W 005°12'0 0.0
2018-Jul-10 12:25N 51°31' W 005°12'0 0.0
2018-Jul-10 11:58N 51°31' W 005°12'0 0.0
2018-Jul-10 11:16N 51°31' W 005°12'0 0.3
2018-Jul-10 10:58N 51°31' W 005°12'0 0.3
2018-Jul-10 10:28N 51°31' W 005°12'0 0.0
2018-Jul-10 09:55N 51°31' W 005°12'0 0.1
2018-Jul-10 09:28N 51°31' W 005°12'0 0.0
2018-Jul-10 08:58N 51°31' W 005°12'0 0.0
2018-Jul-10 08:31N 51°31' W 005°12'0 0.0
2018-Jul-10 08:01N 51°31' W 005°12'0 0.0
2018-Jul-10 07:27N 51°31' W 005°12'0 0.0
2018-Jul-10 07:00N 51°31' W 005°12'0 0.0
2018-Jul-10 06:30N 51°31' W 005°12'0 0.1
2018-Jul-10 06:00N 51°31' W 005°12'0 0.0
2018-Jul-10 05:30N 51°31' W 005°12'0 0.0
2018-Jul-10 05:00N 51°31' W 005°12'0 0.2
2018-Jul-10 04:30N 51°31' W 005°12'0 0.1
2018-Jul-10 04:00N 51°31' W 005°12'0 0.1
2018-Jul-10 03:27N 51°31' W 005°12'0 0.0
2018-Jul-10 02:57N 51°31' W 005°12'0 0.2
2018-Jul-10 02:30N 51°30' W 005°12'0 0.2
2018-Jul-10 02:00N 51°30' W 005°12'0 0.1
2018-Jul-10 01:30N 51°31' W 005°12'0 0.1
2018-Jul-10 01:00N 51°31' W 005°12'0 0.0
2018-Jul-09 22:54N 51°31' W 005°12'0 0.1
2018-Jul-09 22:30N 51°31' W 005°12'0 0.1
2018-Jul-09 21:57N 51°31' W 005°12'0 0.2
2018-Jul-09 21:30N 51°31' W 005°12'0 0.2
2018-Jul-09 21:00N 51°31' W 005°12'0 0.1
2018-Jul-09 20:27N 51°31' W 005°12'0 0.0
2018-Jul-09 20:00N 51°31' W 005°12'0 0.0
2018-Jul-09 19:30N 51°31' W 005°12'0 0.0
2018-Jul-09 19:00N 51°31' W 005°12'0 0.1
2018-Jul-09 18:30N 51°31' W 005°12'0 0.0
2018-Jul-09 18:00N 51°31' W 005°12'0 0.0
2018-Jul-09 17:30N 51°31' W 005°12'0 0.0
2018-Jul-09 17:00N 51°31' W 005°12'0 0.0
2018-Jul-09 16:24N 51°31' W 005°12'0 0.0
2018-Jul-09 16:00N 51°31' W 005°12'0 0.1
2018-Jul-09 15:30N 51°31' W 005°12'0 0.2
2018-Jul-09 14:57N 51°31' W 005°12'0 0.0
2018-Jul-09 14:27N 51°31' W 005°12'0 0.3
2018-Jul-09 14:00N 51°30' W 005°12'0 0.1
2018-Jul-09 13:12N 51°31' W 005°12'0 0.1
2018-Jul-09 12:39N 51°31' W 005°12'0 0.2
2018-Jul-09 12:27N 51°31' W 005°12'0 0.0
2018-Jul-09 11:45N 51°31' W 005°12'0 0.0
2018-Jul-09 11:24N 51°31' W 005°12'0 0.0
2018-Jul-09 09:09N 51°30' W 005°12'0 0.5
2018-Jul-09 08:57N 51°31' W 005°12'0 0.3
2018-Jul-09 08:30N 51°31' W 005°12'0 0.1
2018-Jul-09 07:57N 51°31' W 005°12'0 0.0
2018-Jul-09 07:30N 51°31' W 005°12'0 0.0
2018-Jul-09 07:00N 51°31' W 005°12'0 0.0
2018-Jul-09 06:30N 51°31' W 005°12'0 0.2
2018-Jul-09 06:00N 51°31' W 005°12'0 0.0
2018-Jul-09 05:30N 51°31' W 005°12'2 3.5
2018-Jul-09 05:00N 51°30' W 005°15'3 6.4
2018-Jul-09 04:30N 51°29' W 005°20'610.6
2018-Jul-09 03:59N 51°25' W 005°25'611.6
2018-Jul-09 03:29N 51°20' W 005°29'712.5
2018-Jul-09 02:57N 51°14' W 005°34'612.7
2018-Jul-09 02:29N 51°09' W 005°39'612.6
2018-Jul-09 02:00N 51°03' W 005°44'612.7
2018-Jul-09 01:30N 50°58' W 005°48'613.0
2018-Jul-09 01:00N 50°52' W 005°53'1412.9
2018-Jul-08 23:56N 50°40' W 006°04'612.7
2018-Jul-08 23:28N 50°35' W 006°08'612.9
2018-Jul-08 23:00N 50°29' W 006°13'612.8
2018-Jul-08 22:30N 50°24' W 006°18'612.7
2018-Jul-08 22:00N 50°18' W 006°23'1212.7
2018-Jul-08 21:03N 50°08' W 006°32'113.4
2018-Jul-08 21:00N 50°07' W 006°32'612.5
2018-Jul-08 20:30N 50°01' W 006°36'612.0
2018-Jul-08 19:59N 49°56' W 006°40'611.8
2018-Jul-08 19:29N 49°50' W 006°43'612.1
2018-Jul-08 19:00N 49°45' W 006°46'612.2
2018-Jul-08 18:30N 49°39' W 006°49'  

Dump ship's entire track history